sensor_id;sensor_type;location;lat;lon;timestamp;pressure;altitude;pressure_sealevel;temperature;humidity
26978;BME280;56314;48.088;11.642;2023-02-19T00:01:27;95869.69;;;10.76;61.56
26978;BME280;56314;48.088;11.642;2023-02-19T00:03:55;95865.56;;;10.72;61.68
26978;BME280;56314;48.088;11.642;2023-02-19T00:06:22;95857.59;;;10.73;61.62
26978;BME280;56314;48.088;11.642;2023-02-19T00:08:49;95855.81;;;10.74;61.82
26978;BME280;56314;48.088;11.642;2023-02-19T00:11:16;95849.94;;;10.70;61.88
26978;BME280;56314;48.088;11.642;2023-02-19T00:13:45;95854.03;;;10.74;61.30
26978;BME280;56314;48.088;11.642;2023-02-19T00:16:22;95843.84;;;10.70;61.83
26978;BME280;56314;48.088;11.642;2023-02-19T00:18:48;95849.19;;;10.68;61.96
26978;BME280;56314;48.088;11.642;2023-02-19T00:21:15;95851.63;;;10.71;62.23
26978;BME280;56314;48.088;11.642;2023-02-19T00:23:41;95855.81;;;10.74;62.12
26978;BME280;56314;48.088;11.642;2023-02-19T00:26:09;95850.38;;;10.64;62.28
26978;BME280;56314;48.088;11.642;2023-02-19T00:28:35;95838.91;;;10.65;62.11
26978;BME280;56314;48.088;11.642;2023-02-19T00:31:08;95842.38;;;10.66;62.16
26978;BME280;56314;48.088;11.642;2023-02-19T00:33:34;95841.94;;;10.72;62.02
26978;BME280;56314;48.088;11.642;2023-02-19T00:36:03;95837.34;;;10.62;62.27
26978;BME280;56314;48.088;11.642;2023-02-19T00:38:30;95841.44;;;10.67;62.11
26978;BME280;56314;48.088;11.642;2023-02-19T00:40:57;95842.25;;;10.67;62.39
26978;BME280;56314;48.088;11.642;2023-02-19T00:43:23;95843.00;;;10.69;62.09
26978;BME280;56314;48.088;11.642;2023-02-19T00:45:48;95834.72;;;10.62;62.39
26978;BME280;56314;48.088;11.642;2023-02-19T00:48:13;95842.59;;;10.62;62.43
26978;BME280;56314;48.088;11.642;2023-02-19T00:50:39;95838.81;;;10.67;62.42
26978;BME280;56314;48.088;11.642;2023-02-19T00:53:04;95835.44;;;10.65;62.28
26978;BME280;56314;48.088;11.642;2023-02-19T00:55:29;95827.91;;;10.60;62.31
26978;BME280;56314;48.088;11.642;2023-02-19T00:57:55;95816.25;;;10.64;62.41
26978;BME280;56314;48.088;11.642;2023-02-19T01:00:20;95820.63;;;10.63;62.34
26978;BME280;56314;48.088;11.642;2023-02-19T01:02:45;95818.88;;;10.64;62.40
26978;BME280;56314;48.088;11.642;2023-02-19T01:05:11;95812.25;;;10.58;62.60
26978;BME280;56314;48.088;11.642;2023-02-19T01:07:36;95817.94;;;10.52;62.92
26978;BME280;56314;48.088;11.642;2023-02-19T01:10:03;95804.81;;;10.52;62.99
26978;BME280;56314;48.088;11.642;2023-02-19T01:12:29;95802.50;;;10.47;63.31
26978;BME280;56314;48.088;11.642;2023-02-19T01:14:55;95809.75;;;10.44;62.99
26978;BME280;56314;48.088;11.642;2023-02-19T01:17:21;95805.25;;;10.46;63.34
26978;BME280;56314;48.088;11.642;2023-02-19T01:19:46;95808.38;;;10.51;62.78
26978;BME280;56314;48.088;11.642;2023-02-19T01:22:11;95803.25;;;10.50;63.17
26978;BME280;56314;48.088;11.642;2023-02-19T01:24:37;95804.28;;;10.47;63.46
26978;BME280;56314;48.088;11.642;2023-02-19T01:27:02;95803.66;;;10.56;62.89
26978;BME280;56314;48.088;11.642;2023-02-19T01:29:27;95803.31;;;10.48;63.22
26978;BME280;56314;48.088;11.642;2023-02-19T01:31:53;95797.56;;;10.43;63.74
26978;BME280;56314;48.088;11.642;2023-02-19T01:34:18;95786.22;;;10.42;64.09
26978;BME280;56314;48.088;11.642;2023-02-19T01:36:43;95792.41;;;10.41;63.94
26978;BME280;56314;48.088;11.642;2023-02-19T01:39:09;95785.59;;;10.52;63.54
26978;BME280;56314;48.088;11.642;2023-02-19T01:41:36;95788.75;;;10.44;64.19
26978;BME280;56314;48.088;11.642;2023-02-19T01:46:42;95797.91;;;10.38;63.72
26978;BME280;56314;48.088;11.642;2023-02-19T01:49:21;95784.34;;;10.44;63.49
26978;BME280;56314;48.088;11.642;2023-02-19T01:51:55;95784.78;;;10.38;63.86
26978;BME280;56314;48.088;11.642;2023-02-19T01:54:27;95786.72;;;10.35;64.00
26978;BME280;56314;48.088;11.642;2023-02-19T01:56:56;95789.25;;;10.36;63.46
26978;BME280;56314;48.088;11.642;2023-02-19T01:59:21;95784.22;;;10.33;63.89
26978;BME280;56314;48.088;11.642;2023-02-19T02:01:47;95773.84;;;10.31;63.70
26978;BME280;56314;48.088;11.642;2023-02-19T02:04:13;95767.97;;;10.28;63.73
26978;BME280;56314;48.088;11.642;2023-02-19T02:06:50;95768.47;;;10.33;63.92
26978;BME280;56314;48.088;11.642;2023-02-19T02:09:21;95772.56;;;10.37;63.69
26978;BME280;56314;48.088;11.642;2023-02-19T02:12:05;95761.22;;;10.37;64.00
26978;BME280;56314;48.088;11.642;2023-02-19T02:14:33;95760.78;;;10.30;63.90
26978;BME280;56314;48.088;11.642;2023-02-19T02:17:27;95762.47;;;10.31;63.67
26978;BME280;56314;48.088;11.642;2023-02-19T02:22:31;95763.13;;;10.22;64.91
26978;BME280;56314;48.088;11.642;2023-02-19T02:25:06;95761.88;;;10.27;65.51
26978;BME280;56314;48.088;11.642;2023-02-19T02:30:36;95748.97;;;10.11;67.09
26978;BME280;56314;48.088;11.642;2023-02-19T02:35:58;95753.69;;;10.06;67.90
26978;BME280;56314;48.088;11.642;2023-02-19T02:38:23;95748.34;;;10.08;67.74
26978;BME280;56314;48.088;11.642;2023-02-19T02:40:50;95747.50;;;10.07;68.11
26978;BME280;56314;48.088;11.642;2023-02-19T02:43:16;95742.69;;;10.01;68.07
26978;BME280;56314;48.088;11.642;2023-02-19T02:45:42;95742.50;;;10.04;66.96
26978;BME280;56314;48.088;11.642;2023-02-19T02:51:15;95744.38;;;10.02;67.32
26978;BME280;56314;48.088;11.642;2023-02-19T02:54:02;95749.81;;;9.99;68.57
26978;BME280;56314;48.088;11.642;2023-02-19T02:56:49;95728.44;;;9.92;68.53
26978;BME280;56314;48.088;11.642;2023-02-19T02:59:18;95722.16;;;9.82;71.46
26978;BME280;56314;48.088;11.642;2023-02-19T03:01:49;95717.97;;;9.79;72.92
26978;BME280;56314;48.088;11.642;2023-02-19T03:07:57;95728.09;;;9.45;75.62
26978;BME280;56314;48.088;11.642;2023-02-19T03:10:30;95712.47;;;9.44;75.53
26978;BME280;56314;48.088;11.642;2023-02-19T03:12:57;95718.78;;;9.41;77.17
26978;BME280;56314;48.088;11.642;2023-02-19T03:15:49;95712.16;;;9.35;78.59
26978;BME280;56314;48.088;11.642;2023-02-19T03:18:36;95716.25;;;9.27;79.20
26978;BME280;56314;48.088;11.642;2023-02-19T03:21:24;95709.50;;;9.22;79.82
26978;BME280;56314;48.088;11.642;2023-02-19T03:23:52;95719.69;;;9.14;80.83
26978;BME280;56314;48.088;11.642;2023-02-19T03:26:39;95731.06;;;9.00;83.45
26978;BME280;56314;48.088;11.642;2023-02-19T03:29:07;95730.72;;;8.92;85.41
26978;BME280;56314;48.088;11.642;2023-02-19T03:31:59;95714.13;;;8.78;86.99
26978;BME280;56314;48.088;11.642;2023-02-19T03:34:33;95714.41;;;8.74;88.26
26978;BME280;56314;48.088;11.642;2023-02-19T03:37:09;95717.16;;;8.72;89.39
26978;BME280;56314;48.088;11.642;2023-02-19T03:39:37;95720.16;;;8.66;89.14
26978;BME280;56314;48.088;11.642;2023-02-19T03:45:04;95736.94;;;8.49;90.52
26978;BME280;56314;48.088;11.642;2023-02-19T03:47:46;95731.81;;;8.47;91.50
26978;BME280;56314;48.088;11.642;2023-02-19T03:50:26;95717.13;;;8.45;92.57
26978;BME280;56314;48.088;11.642;2023-02-19T03:53:35;95718.41;;;8.38;92.68
26978;BME280;56314;48.088;11.642;2023-02-19T03:55:55;95718.91;;;8.30;93.88
26978;BME280;56314;48.088;11.642;2023-02-19T03:58:32;95723.59;;;8.25;94.70
26978;BME280;56314;48.088;11.642;2023-02-19T04:01:06;95724.25;;;8.28;95.28
26978;BME280;56314;48.088;11.642;2023-02-19T04:06:08;95708.38;;;8.17;96.37
26978;BME280;56314;48.088;11.642;2023-02-19T04:08:35;95720.63;;;8.16;96.92
26978;BME280;56314;48.088;11.642;2023-02-19T04:11:03;95727.28;;;8.08;96.64
26978;BME280;56314;48.088;11.642;2023-02-19T04:13:33;95723.91;;;8.06;96.26
26978;BME280;56314;48.088;11.642;2023-02-19T04:16:05;95718.84;;;8.02;96.88
26978;BME280;56314;48.088;11.642;2023-02-19T04:18:36;95708.22;;;8.06;96.82
26978;BME280;56314;48.088;11.642;2023-02-19T04:21:03;95712.41;;;8.08;97.56
26978;BME280;56314;48.088;11.642;2023-02-19T04:23:35;95711.94;;;8.01;96.56
26978;BME280;56314;48.088;11.642;2023-02-19T04:26:02;95698.97;;;8.00;95.57
26978;BME280;56314;48.088;11.642;2023-02-19T04:28:28;95706.16;;;7.96;95.42
26978;BME280;56314;48.088;11.642;2023-02-19T04:30:53;95702.69;;;7.96;96.12
26978;BME280;56314;48.088;11.642;2023-02-19T04:33:19;95697.09;;;8.02;96.56
26978;BME280;56314;48.088;11.642;2023-02-19T04:35:44;95692.53;;;7.91;96.17
26978;BME280;56314;48.088;11.642;2023-02-19T04:38:10;95716.06;;;7.91;96.63
26978;BME280;56314;48.088;11.642;2023-02-19T04:40:36;95710.19;;;7.88;96.07
26978;BME280;56314;48.088;11.642;2023-02-19T04:43:01;95712.44;;;7.79;96.59
26978;BME280;56314;48.088;11.642;2023-02-19T04:45:27;95707.00;;;7.82;97.22
26978;BME280;56314;48.088;11.642;2023-02-19T04:47:52;95703.00;;;7.77;96.17
26978;BME280;56314;48.088;11.642;2023-02-19T04:50:17;95712.50;;;7.78;96.83
26978;BME280;56314;48.088;11.642;2023-02-19T04:52:42;95714.31;;;7.77;96.23
26978;BME280;56314;48.088;11.642;2023-02-19T04:55:08;95720.28;;;7.79;96.65
26978;BME280;56314;48.088;11.642;2023-02-19T04:57:34;95721.22;;;7.78;97.00
26978;BME280;56314;48.088;11.642;2023-02-19T04:59:59;95718.69;;;7.77;95.98
26978;BME280;56314;48.088;11.642;2023-02-19T05:02:25;95726.50;;;7.77;96.00
26978;BME280;56314;48.088;11.642;2023-02-19T05:04:50;95723.72;;;7.80;95.63
26978;BME280;56314;48.088;11.642;2023-02-19T05:07:15;95734.34;;;7.77;96.51
26978;BME280;56314;48.088;11.642;2023-02-19T05:09:41;95731.50;;;7.81;96.33
26978;BME280;56314;48.088;11.642;2023-02-19T05:12:06;95723.81;;;7.78;96.21
26978;BME280;56314;48.088;11.642;2023-02-19T05:14:31;95725.59;;;7.78;95.37
26978;BME280;56314;48.088;11.642;2023-02-19T05:16:57;95731.38;;;7.83;95.40
26978;BME280;56314;48.088;11.642;2023-02-19T05:19:22;95721.56;;;7.86;94.63
26978;BME280;56314;48.088;11.642;2023-02-19T05:21:47;95731.38;;;7.83;94.39
26978;BME280;56314;48.088;11.642;2023-02-19T05:24:13;95727.38;;;7.92;94.11
26978;BME280;56314;48.088;11.642;2023-02-19T05:26:38;95717.75;;;7.92;92.91
26978;BME280;56314;48.088;11.642;2023-02-19T05:29:03;95731.09;;;7.88;93.55
26978;BME280;56314;48.088;11.642;2023-02-19T05:31:29;95731.66;;;7.78;93.36
26978;BME280;56314;48.088;11.642;2023-02-19T05:33:55;95728.66;;;7.84;93.35
26978;BME280;56314;48.088;11.642;2023-02-19T05:36:21;95731.28;;;7.84;92.55
26978;BME280;56314;48.088;11.642;2023-02-19T05:38:47;95732.50;;;7.79;93.66
26978;BME280;56314;48.088;11.642;2023-02-19T05:41:17;95745.50;;;7.80;92.71
26978;BME280;56314;48.088;11.642;2023-02-19T05:43:44;95740.16;;;7.82;92.25
26978;BME280;56314;48.088;11.642;2023-02-19T05:46:12;95746.63;;;7.91;90.99
26978;BME280;56314;48.088;11.642;2023-02-19T05:48:38;95748.19;;;7.93;91.40
26978;BME280;56314;48.088;11.642;2023-02-19T05:51:09;95751.66;;;7.94;90.06
26978;BME280;56314;48.088;11.642;2023-02-19T05:53:35;95756.97;;;7.92;90.63
26978;BME280;56314;48.088;11.642;2023-02-19T05:56:00;95754.34;;;7.92;90.21
26978;BME280;56314;48.088;11.642;2023-02-19T05:58:26;95758.28;;;7.85;90.97
26978;BME280;56314;48.088;11.642;2023-02-19T06:00:52;95768.47;;;7.90;91.07
26978;BME280;56314;48.088;11.642;2023-02-19T06:03:18;95765.00;;;7.89;89.64
26978;BME280;56314;48.088;11.642;2023-02-19T06:05:44;95762.19;;;7.92;89.57
26978;BME280;56314;48.088;11.642;2023-02-19T06:08:13;95769.00;;;7.95;88.46
26978;BME280;56314;48.088;11.642;2023-02-19T06:10:39;95769.13;;;7.93;89.16
26978;BME280;56314;48.088;11.642;2023-02-19T06:13:08;95776.31;;;7.90;89.47
26978;BME280;56314;48.088;11.642;2023-02-19T06:15:35;95776.97;;;7.93;88.41
26978;BME280;56314;48.088;11.642;2023-02-19T06:18:00;95765.28;;;7.99;88.53
26978;BME280;56314;48.088;11.642;2023-02-19T06:20:26;95767.72;;;8.02;87.50
26978;BME280;56314;48.088;11.642;2023-02-19T06:22:51;95771.63;;;7.95;87.71
26978;BME280;56314;48.088;11.642;2023-02-19T06:25:17;95779.00;;;8.02;87.88
26978;BME280;56314;48.088;11.642;2023-02-19T06:27:43;95779.94;;;8.01;88.24
26978;BME280;56314;48.088;11.642;2023-02-19T06:30:09;95779.66;;;8.06;87.01
26978;BME280;56314;48.088;11.642;2023-02-19T06:32:35;95792.94;;;8.03;86.90
26978;BME280;56314;48.088;11.642;2023-02-19T06:35:00;95793.88;;;8.02;86.40
26978;BME280;56314;48.088;11.642;2023-02-19T06:37:26;95791.63;;;8.10;87.05
26978;BME280;56314;48.088;11.642;2023-02-19T06:39:51;95798.34;;;8.14;86.14
26978;BME280;56314;48.088;11.642;2023-02-19T06:42:16;95800.22;;;8.12;86.00
26978;BME280;56314;48.088;11.642;2023-02-19T06:44:42;95797.22;;;8.19;85.63
26978;BME280;56314;48.088;11.642;2023-02-19T06:47:07;95803.47;;;8.16;86.25
26978;BME280;56314;48.088;11.642;2023-02-19T06:49:32;95799.84;;;8.19;85.80
26978;BME280;56314;48.088;11.642;2023-02-19T06:51:58;95806.56;;;8.23;85.47
26978;BME280;56314;48.088;11.642;2023-02-19T06:54:25;95803.66;;;8.27;85.53
26978;BME280;56314;48.088;11.642;2023-02-19T06:56:51;95811.81;;;8.37;85.61
26978;BME280;56314;48.088;11.642;2023-02-19T06:59:16;95820.69;;;8.35;84.22
26978;BME280;56314;48.088;11.642;2023-02-19T07:01:42;95818.06;;;8.35;84.42
26978;BME280;56314;48.088;11.642;2023-02-19T07:04:08;95813.38;;;8.40;84.46
26978;BME280;56314;48.088;11.642;2023-02-19T07:06:34;95818.16;;;8.47;84.56
26978;BME280;56314;48.088;11.642;2023-02-19T07:09:00;95833.09;;;8.45;83.94
26978;BME280;56314;48.088;11.642;2023-02-19T07:11:30;95827.13;;;8.58;83.76
26978;BME280;56314;48.088;11.642;2023-02-19T07:13:57;95831.25;;;8.62;82.92
26978;BME280;56314;48.088;11.642;2023-02-19T07:16:23;95840.56;;;8.66;83.04
26978;BME280;56314;48.088;11.642;2023-02-19T07:18:49;95842.19;;;8.69;82.62
26978;BME280;56314;48.088;11.642;2023-02-19T07:21:15;95860.41;;;8.70;83.29
26978;BME280;56314;48.088;11.642;2023-02-19T07:23:41;95861.78;;;8.76;82.69
26978;BME280;56314;48.088;11.642;2023-02-19T07:26:11;95854.41;;;8.83;82.37
26978;BME280;56314;48.088;11.642;2023-02-19T07:28:39;95873.38;;;8.86;82.87
26978;BME280;56314;48.088;11.642;2023-02-19T07:31:05;95861.03;;;8.88;81.98
26978;BME280;56314;48.088;11.642;2023-02-19T07:33:30;95857.94;;;8.82;83.01
26978;BME280;56314;48.088;11.642;2023-02-19T07:35:56;95861.78;;;8.76;82.84
26978;BME280;56314;48.088;11.642;2023-02-19T07:38:22;95864.53;;;8.74;84.03
26978;BME280;56314;48.088;11.642;2023-02-19T07:40:57;95862.44;;;8.80;83.80
26978;BME280;56314;48.088;11.642;2023-02-19T07:43:23;95873.47;;;8.85;83.73
26978;BME280;56314;48.088;11.642;2023-02-19T07:45:50;95865.28;;;8.76;84.76
26978;BME280;56314;48.088;11.642;2023-02-19T07:48:16;95880.59;;;8.83;84.52
26978;BME280;56314;48.088;11.642;2023-02-19T07:50:41;95880.06;;;8.77;84.31
26978;BME280;56314;48.088;11.642;2023-02-19T07:53:07;95887.16;;;8.75;84.49
26978;BME280;56314;48.088;11.642;2023-02-19T07:55:33;95888.34;;;8.84;85.29
26978;BME280;56314;48.088;11.642;2023-02-19T07:57:59;95885.47;;;8.89;83.81
26978;BME280;56314;48.088;11.642;2023-02-19T08:00:25;95889.75;;;8.90;83.48
26978;BME280;56314;48.088;11.642;2023-02-19T08:02:51;95902.09;;;8.88;83.31
26978;BME280;56314;48.088;11.642;2023-02-19T08:05:28;95903.88;;;8.87;84.58
26978;BME280;56314;48.088;11.642;2023-02-19T08:07:55;95900.03;;;8.93;85.23
26978;BME280;56314;48.088;11.642;2023-02-19T08:10:20;95900.47;;;9.00;84.18
26978;BME280;56314;48.088;11.642;2023-02-19T08:13:05;95906.41;;;8.89;83.70
26978;BME280;56314;48.088;11.642;2023-02-19T08:15:51;95912.59;;;8.88;83.01
26978;BME280;56314;48.088;11.642;2023-02-19T08:18:19;95915.28;;;8.86;84.35
26978;BME280;56314;48.088;11.642;2023-02-19T08:20:45;95910.03;;;8.86;84.29
26978;BME280;56314;48.088;11.642;2023-02-19T08:23:11;95927.06;;;8.79;84.65
26978;BME280;56314;48.088;11.642;2023-02-19T08:25:37;95925.84;;;8.70;85.32
26978;BME280;56314;48.088;11.642;2023-02-19T08:28:03;95932.31;;;8.65;86.75
26978;BME280;56314;48.088;11.642;2023-02-19T08:30:30;95943.72;;;8.63;87.96
26978;BME280;56314;48.088;11.642;2023-02-19T08:32:57;95941.28;;;8.60;88.98
26978;BME280;56314;48.088;11.642;2023-02-19T08:35:23;95928.56;;;8.54;89.21
26978;BME280;56314;48.088;11.642;2023-02-19T08:37:48;95935.31;;;8.58;88.42
26978;BME280;56314;48.088;11.642;2023-02-19T08:40:13;95944.19;;;8.56;87.60
26978;BME280;56314;48.088;11.642;2023-02-19T08:42:39;95943.53;;;8.52;88.92
26978;BME280;56314;48.088;11.642;2023-02-19T08:45:04;95940.16;;;8.50;89.78
26978;BME280;56314;48.088;11.642;2023-02-19T08:47:30;95949.50;;;8.54;90.62
26978;BME280;56314;48.088;11.642;2023-02-19T08:49:55;95945.97;;;8.55;89.89
26978;BME280;56314;48.088;11.642;2023-02-19T08:52:21;95944.56;;;8.64;90.16
26978;BME280;56314;48.088;11.642;2023-02-19T08:54:46;95952.88;;;8.85;89.00
26978;BME280;56314;48.088;11.642;2023-02-19T08:57:11;95952.97;;;8.98;89.02
26978;BME280;56314;48.088;11.642;2023-02-19T08:59:37;95964.94;;;9.02;88.25
26978;BME280;56314;48.088;11.642;2023-02-19T09:02:02;95956.53;;;8.97;87.82
26978;BME280;56314;48.088;11.642;2023-02-19T09:04:28;95960.38;;;8.91;88.55
26978;BME280;56314;48.088;11.642;2023-02-19T09:06:53;95965.72;;;8.90;87.76
26978;BME280;56314;48.088;11.642;2023-02-19T09:09:18;95961.59;;;8.86;87.74
26978;BME280;56314;48.088;11.642;2023-02-19T09:11:44;95962.69;;;8.82;87.88
26978;BME280;56314;48.088;11.642;2023-02-19T09:14:09;95963.09;;;8.90;88.08
26978;BME280;56314;48.088;11.642;2023-02-19T09:16:35;95972.25;;;8.97;87.21
26978;BME280;56314;48.088;11.642;2023-02-19T09:19:02;95962.34;;;8.88;88.45
26978;BME280;56314;48.088;11.642;2023-02-19T09:21:28;95964.28;;;8.84;87.74
26978;BME280;56314;48.088;11.642;2023-02-19T09:23:53;95966.66;;;8.89;88.28
26978;BME280;56314;48.088;11.642;2023-02-19T09:26:18;95968.47;;;9.16;87.18
26978;BME280;56314;48.088;11.642;2023-02-19T09:28:44;95966.19;;;9.38;83.64
26978;BME280;56314;48.088;11.642;2023-02-19T09:31:12;95964.09;;;9.58;82.54
26978;BME280;56314;48.088;11.642;2023-02-19T09:33:41;95959.00;;;9.69;82.13
26978;BME280;56314;48.088;11.642;2023-02-19T09:36:06;95955.91;;;9.90;79.83
26978;BME280;56314;48.088;11.642;2023-02-19T09:38:32;95959.72;;;10.12;78.90
26978;BME280;56314;48.088;11.642;2023-02-19T09:40:57;95955.00;;;10.44;76.28
26978;BME280;56314;48.088;11.642;2023-02-19T09:43:25;95953.31;;;10.95;74.26
26978;BME280;56314;48.088;11.642;2023-02-19T09:46:01;95945.28;;;12.67;67.39
26978;BME280;56314;48.088;11.642;2023-02-19T09:48:28;95951.03;;;12.72;61.79
26978;BME280;56314;48.088;11.642;2023-02-19T09:50:54;95956.22;;;12.26;63.98
26978;BME280;56314;48.088;11.642;2023-02-19T09:53:24;95963.72;;;12.20;62.73
26978;BME280;56314;48.088;11.642;2023-02-19T09:55:51;95964.84;;;11.80;64.93
26978;BME280;56314;48.088;11.642;2023-02-19T09:58:27;95977.09;;;11.31;66.29
26978;BME280;56314;48.088;11.642;2023-02-19T10:00:56;95989.16;;;10.70;66.89
26978;BME280;56314;48.088;11.642;2023-02-19T10:03:28;95977.28;;;10.24;68.12
26978;BME280;56314;48.088;11.642;2023-02-19T10:06:13;95992.28;;;10.09;68.40
26978;BME280;56314;48.088;11.642;2023-02-19T10:08:40;95992.78;;;10.01;68.90
26978;BME280;56314;48.088;11.642;2023-02-19T10:11:10;95993.53;;;10.04;69.21
26978;BME280;56314;48.088;11.642;2023-02-19T10:13:42;95986.00;;;9.84;69.96
26978;BME280;56314;48.088;11.642;2023-02-19T10:16:16;95990.81;;;9.78;69.58
26978;BME280;56314;48.088;11.642;2023-02-19T10:18:43;95994.28;;;9.78;70.25
26978;BME280;56314;48.088;11.642;2023-02-19T10:21:21;95987.47;;;10.16;69.73
26978;BME280;56314;48.088;11.642;2023-02-19T10:23:50;95981.50;;;10.27;65.76
26978;BME280;56314;48.088;11.642;2023-02-19T10:26:17;95989.25;;;10.43;65.03
26978;BME280;56314;48.088;11.642;2023-02-19T10:28:43;95991.75;;;10.44;63.23
26978;BME280;56314;48.088;11.642;2023-02-19T10:31:22;95998.06;;;10.42;62.77
26978;BME280;56314;48.088;11.642;2023-02-19T10:33:56;95994.34;;;10.31;62.09
26978;BME280;56314;48.088;11.642;2023-02-19T10:36:32;95995.13;;;11.11;60.14
26978;BME280;56314;48.088;11.642;2023-02-19T10:39:01;96006.81;;;11.44;58.46
26978;BME280;56314;48.088;11.642;2023-02-19T10:41:27;95994.31;;;11.48;57.66
26978;BME280;56314;48.088;11.642;2023-02-19T10:44:13;95983.88;;;13.13;52.85
26978;BME280;56314;48.088;11.642;2023-02-19T10:46:47;95976.81;;;13.02;51.88
26978;BME280;56314;48.088;11.642;2023-02-19T10:49:24;95972.25;;;13.50;50.59
26978;BME280;56314;48.088;11.642;2023-02-19T10:51:53;95984.91;;;13.79;50.32
26978;BME280;56314;48.088;11.642;2023-02-19T10:54:27;95978.47;;;14.04;49.40
26978;BME280;56314;48.088;11.642;2023-02-19T10:57:14;95973.06;;;15.43;46.20
26978;BME280;56314;48.088;11.642;2023-02-19T10:59:56;95948.97;;;16.16;43.73
26978;BME280;56314;48.088;11.642;2023-02-19T11:02:22;95952.44;;;16.56;42.48
26978;BME280;56314;48.088;11.642;2023-02-19T11:08:01;95970.69;;;14.77;45.12
26978;BME280;56314;48.088;11.642;2023-02-19T11:10:35;95976.09;;;14.01;47.51
26978;BME280;56314;48.088;11.642;2023-02-19T11:13:05;95979.56;;;13.23;47.15
26978;BME280;56314;48.088;11.642;2023-02-19T11:15:35;95959.41;;;12.66;48.87
26978;BME280;56314;48.088;11.642;2023-02-19T11:20:47;95979.94;;;12.02;51.24
26978;BME280;56314;48.088;11.642;2023-02-19T11:23:16;95982.34;;;11.68;52.23
26978;BME280;56314;48.088;11.642;2023-02-19T11:25:48;95979.44;;;11.60;52.47
26978;BME280;56314;48.088;11.642;2023-02-19T11:28:27;95979.81;;;11.42;53.06
26978;BME280;56314;48.088;11.642;2023-02-19T11:30:53;95986.66;;;11.32;55.36
26978;BME280;56314;48.088;11.642;2023-02-19T11:33:23;95983.75;;;11.23;56.82
26978;BME280;56314;48.088;11.642;2023-02-19T11:35:54;95990.34;;;11.29;56.46
26978;BME280;56314;48.088;11.642;2023-02-19T11:38:23;95992.69;;;11.08;56.78
26978;BME280;56314;48.088;11.642;2023-02-19T11:43:52;95985.88;;;11.05;56.35
26978;BME280;56314;48.088;11.642;2023-02-19T11:46:32;95977.75;;;11.21;56.96
26978;BME280;56314;48.088;11.642;2023-02-19T11:52:13;95964.34;;;12.70;53.90
26978;BME280;56314;48.088;11.642;2023-02-19T11:54:49;95966.16;;;13.04;52.33
26978;BME280;56314;48.088;11.642;2023-02-19T12:06:13;95993.91;;;11.41;56.79
26978;BME280;56314;48.088;11.642;2023-02-19T12:09:02;95993.09;;;11.28;57.93
26978;BME280;56314;48.088;11.642;2023-02-19T12:20:11;95996.16;;;10.96;54.14
26978;BME280;56314;48.088;11.642;2023-02-19T12:23:01;96001.25;;;10.86;54.01
26978;BME280;56314;48.088;11.642;2023-02-19T12:25:51;95994.19;;;10.86;54.79
26978;BME280;56314;48.088;11.642;2023-02-19T12:34:02;95999.34;;;10.88;53.71
26978;BME280;56314;48.088;11.642;2023-02-19T12:36:36;95999.97;;;10.91;53.78
26978;BME280;56314;48.088;11.642;2023-02-19T12:44:58;96008.13;;;10.48;55.20
26978;BME280;56314;48.088;11.642;2023-02-19T12:47:31;96017.41;;;10.67;55.44
26978;BME280;56314;48.088;11.642;2023-02-19T12:50:21;96015.19;;;10.60;55.18
26978;BME280;56314;48.088;11.642;2023-02-19T12:52:52;96026.75;;;10.71;55.63
26978;BME280;56314;48.088;11.642;2023-02-19T12:55:23;96030.22;;;10.58;55.79
26978;BME280;56314;48.088;11.642;2023-02-19T12:57:50;96041.06;;;10.67;56.43
26978;BME280;56314;48.088;11.642;2023-02-19T13:00:34;96042.19;;;10.50;56.98
26978;BME280;56314;48.088;11.642;2023-02-19T13:05:49;96051.22;;;9.91;59.02
26978;BME280;56314;48.088;11.642;2023-02-19T13:08:39;96044.47;;;9.86;59.50
26978;BME280;56314;48.088;11.642;2023-02-19T13:13:43;96050.41;;;10.03;59.07
26978;BME280;56314;48.088;11.642;2023-02-19T13:16:14;96048.56;;;10.18;58.60
26978;BME280;56314;48.088;11.642;2023-02-19T13:18:51;96041.97;;;10.25;57.62
26978;BME280;56314;48.088;11.642;2023-02-19T13:21:19;96050.69;;;10.26;56.68
26978;BME280;56314;48.088;11.642;2023-02-19T13:24:10;96038.75;;;10.07;57.08
26978;BME280;56314;48.088;11.642;2023-02-19T13:26:47;96044.41;;;10.01;56.80
26978;BME280;56314;48.088;11.642;2023-02-19T13:37:24;96039.38;;;10.66;57.07
26978;BME280;56314;48.088;11.642;2023-02-19T13:39:51;96032.84;;;10.71;53.60
26978;BME280;56314;48.088;11.642;2023-02-19T13:42:32;96013.81;;;10.55;53.39
26978;BME280;56314;48.088;11.642;2023-02-19T13:44:59;96016.75;;;10.50;53.15
26978;BME280;56314;48.088;11.642;2023-02-19T13:47:57;96009.09;;;10.20;52.22
26978;BME280;56314;48.088;11.642;2023-02-19T13:50:29;96025.75;;;10.06;52.73
26978;BME280;56314;48.088;11.642;2023-02-19T13:52:59;96022.69;;;9.99;53.77
26978;BME280;56314;48.088;11.642;2023-02-19T14:01:07;96033.22;;;9.84;56.85
26978;BME280;56314;48.088;11.642;2023-02-19T14:06:05;96049.69;;;9.59;59.75
26978;BME280;56314;48.088;11.642;2023-02-19T14:11:15;96048.94;;;9.28;59.67
26978;BME280;56314;48.088;11.642;2023-02-19T14:16:48;96050.44;;;9.18;59.43
26978;BME280;56314;48.088;11.642;2023-02-19T14:25:21;96073.81;;;8.92;62.37
26978;BME280;56314;48.088;11.642;2023-02-19T14:27:49;96051.13;;;8.92;61.52
26978;BME280;56314;48.088;11.642;2023-02-19T14:30:16;96062.16;;;8.83;61.36
26978;BME280;56314;48.088;11.642;2023-02-19T14:32:42;96061.09;;;8.86;61.88
26978;BME280;56314;48.088;11.642;2023-02-19T14:35:17;96069.03;;;8.84;62.18
26978;BME280;56314;48.088;11.642;2023-02-19T14:37:43;96083.16;;;8.82;62.29
26978;BME280;56314;48.088;11.642;2023-02-19T14:40:17;96072.97;;;8.77;63.21
26978;BME280;56314;48.088;11.642;2023-02-19T14:42:46;96075.13;;;8.85;62.79
26978;BME280;56314;48.088;11.642;2023-02-19T14:45:14;96073.91;;;8.76;63.09